Time;durP1;ratioP1;P1;durP2;ratioP2;P2;SDS_P1;SDS_P2;PMS_P1;PMS_P2;Temp;Humidity;BMP_temperature;BMP_pressure;BME280_temperature;BME280_humidity;BME280_pressure;Samples;Min_cycle;Max_cycle;Signal;HPM_P1;HPM_P2
2022/07/24 00:00:28;;;;;;;11.77;7.13;;;;;;;;;;5154207;27;20023;-73
2022/07/24 00:02:58;;;;;;;11.98;8.98;;;;;;;;;;5154794;27;20036;-73
2022/07/24 00:05:27;;;;;;;14.52;8.40;;;;;;;;;;5145698;27;20054;-73
2022/07/24 00:07:57;;;;;;;13.50;8.73;;;;;;;;;;5129655;27;20050;-73
2022/07/24 00:10:28;;;;;;;13.18;7.32;;;;;;;;;;5129872;27;20051;-73
2022/07/24 00:13:00;;;;;;;10.13;7.05;;;;;;;;;;5143231;27;20043;-74
2022/07/24 00:15:30;;;;;;;16.77;7.28;;;;;;;;;;5128694;27;20043;-73
2022/07/24 00:18:00;;;;;;;9.75;7.40;;;;;;;;;;5128103;27;20043;-74
2022/07/24 00:20:30;;;;;;;16.35;6.13;;;;;;;;;;5129047;27;20039;-73
2022/07/24 00:23:00;;;;;;;9.98;6.20;;;;;;;;;;5129174;27;20414;-73
2022/07/24 00:25:31;;;;;;;10.25;6.65;;;;;;;;;;5128812;27;20051;-73
2022/07/24 00:28:01;;;;;;;8.35;5.40;;;;;;;;;;5128602;27;20047;-74
2022/07/24 00:30:37;;;;;;;13.48;7.75;;;;;;;;;;5128251;27;20047;-73
2022/07/24 00:33:09;;;;;;;19.77;10.57;;;;;;;;;;5128904;27;20043;-73
2022/07/24 00:35:39;;;;;;;9.82;7.53;;;;;;;;;;5129535;27;20513;-73
2022/07/24 00:38:09;;;;;;;18.02;9.02;;;;;;;;;;5127184;27;20047;-74
2022/07/24 00:40:39;;;;;;;12.02;8.25;;;;;;;;;;5128593;27;20074;-73
2022/07/24 00:43:09;;;;;;;12.43;7.80;;;;;;;;;;5126970;27;20059;-73
2022/07/24 00:45:39;;;;;;;15.65;10.00;;;;;;;;;;5127820;27;20051;-73
2022/07/24 00:48:09;;;;;;;12.38;8.25;;;;;;;;;;5128054;27;20047;-73
2022/07/24 00:50:40;;;;;;;16.05;7.30;;;;;;;;;;5128773;27;20057;-73
2022/07/24 00:53:10;;;;;;;13.30;8.93;;;;;;;;;;5128144;27;20039;-74
2022/07/24 00:55:41;;;;;;;13.35;9.32;;;;;;;;;;5128346;27;20043;-73
2022/07/24 00:58:12;;;;;;;14.85;8.55;;;;;;;;;;5127725;27;20047;-73
2022/07/24 01:00:42;;;;;;;11.45;7.38;;;;;;;;;;5128513;27;20051;-73
2022/07/24 01:03:12;;;;;;;13.60;7.78;;;;;;;;;;5128192;27;20505;-73
2022/07/24 01:05:44;;;;;;;14.25;7.10;;;;;;;;;;5128287;27;20050;-73
2022/07/24 01:08:14;;;;;;;12.43;7.78;;;;;;;;;;5128319;27;20498;-73
2022/07/24 01:10:49;;;;;;;14.30;8.05;;;;;;;;;;5128442;27;20054;-73
2022/07/24 01:13:19;;;;;;;14.35;9.20;;;;;;;;;;5109917;27;20051;-73
2022/07/24 01:15:49;;;;;;;14.60;9.48;;;;;;;;;;5127796;27;20047;-73
2022/07/24 01:18:19;;;;;;;14.07;8.32;;;;;;;;;;5127114;27;20070;-73
2022/07/24 01:20:50;;;;;;;12.60;7.82;;;;;;;;;;5126472;27;20040;-73
2022/07/24 01:23:19;;;;;;;15.75;8.10;;;;;;;;;;5127813;27;20031;-73
2022/07/24 01:25:50;;;;;;;14.18;7.57;;;;;;;;;;5126520;27;20054;-73
2022/07/24 01:28:20;;;;;;;15.77;8.15;;;;;;;;;;5126533;27;20073;-73
2022/07/24 01:30:50;;;;;;;12.85;7.43;;;;;;;;;;5127047;27;20055;-73
2022/07/24 01:33:20;;;;;;;10.73;7.72;;;;;;;;;;5127818;27;20047;-73
2022/07/24 01:35:51;;;;;;;14.52;8.82;;;;;;;;;;5126358;27;20043;-72
2022/07/24 01:38:21;;;;;;;14.95;9.68;;;;;;;;;;5125835;28;20073;-73
2022/07/24 01:40:51;;;;;;;16.45;9.88;;;;;;;;;;5127522;28;20445;-73
2022/07/24 01:43:21;;;;;;;16.02;10.63;;;;;;;;;;5127525;28;20048;-73
2022/07/24 01:45:51;;;;;;;16.77;9.60;;;;;;;;;;5127385;28;20051;-73
2022/07/24 01:48:21;;;;;;;14.60;9.07;;;;;;;;;;5128007;28;20043;-73
2022/07/24 01:50:51;;;;;;;17.98;8.50;;;;;;;;;;5126771;28;20058;-73
2022/07/24 01:53:20;;;;;;;15.55;10.05;;;;;;;;;;5127457;28;20043;-73
2022/07/24 01:55:53;;;;;;;15.75;11.02;;;;;;;;;;5127668;28;20521;-73
2022/07/24 01:58:23;;;;;;;17.20;11.70;;;;;;;;;;5127686;28;20089;-72
2022/07/24 02:00:53;;;;;;;17.38;11.48;;;;;;;;;;5126546;27;20047;-73
2022/07/24 02:03:23;;;;;;;17.88;10.73;;;;;;;;;;5127037;28;20783;-73
2022/07/24 02:05:53;;;;;;;16.75;10.90;;;;;;;;;;5127504;28;20506;-73
2022/07/24 02:08:23;;;;;;;15.23;9.73;;;;;;;;;;5127223;28;20061;-73
2022/07/24 02:10:54;;;;;;;13.35;9.77;;;;;;;;;;5126312;28;20101;-73
2022/07/24 02:13:25;;;;;;;14.75;9.07;;;;;;;;;;5127226;28;20479;-72
2022/07/24 02:15:58;;;;;;;13.90;9.85;;;;;;;;;;5127387;28;20051;-73
2022/07/24 02:18:28;;;;;;;14.48;10.32;;;;;;;;;;5127817;27;20616;-73
2022/07/24 02:20:58;;;;;;;21.85;10.38;;;;;;;;;;5130795;27;20043;-73
2022/07/24 02:23:28;;;;;;;15.15;10.60;;;;;;;;;;5131850;27;20035;-73
2022/07/24 02:25:58;;;;;;;15.18;11.23;;;;;;;;;;5131232;27;20052;-72
2022/07/24 02:28:27;;;;;;;17.45;10.23;;;;;;;;;;5130558;27;20047;-73
2022/07/24 02:30:57;;;;;;;21.15;12.88;;;;;;;;;;5131087;27;20059;-73
2022/07/24 02:33:27;;;;;;;16.02;11.85;;;;;;;;;;5128251;27;20070;-73
2022/07/24 02:35:57;;;;;;;17.75;10.93;;;;;;;;;;5128644;27;20051;-73
2022/07/24 02:38:27;;;;;;;18.05;9.75;;;;;;;;;;5127137;27;20055;-73
2022/07/24 02:40:56;;;;;;;14.55;9.85;;;;;;;;;;5129317;27;20058;-72
2022/07/24 02:43:26;;;;;;;21.17;12.43;;;;;;;;;;5129723;27;20533;-72
2022/07/24 02:45:56;;;;;;;18.88;10.27;;;;;;;;;;5129290;27;20059;-73
2022/07/24 02:48:26;;;;;;;17.27;10.73;;;;;;;;;;5130555;27;20425;-73
2022/07/24 02:50:56;;;;;;;15.80;10.95;;;;;;;;;;5130890;27;20047;-73
2022/07/24 02:53:26;;;;;;;22.05;11.23;;;;;;;;;;5130980;27;20039;-73
2022/07/24 02:55:56;;;;;;;19.98;13.93;;;;;;;;;;5130424;27;20035;-73
2022/07/24 02:58:26;;;;;;;23.13;14.90;;;;;;;;;;5130542;27;20047;-73
2022/07/24 03:00:55;;;;;;;19.10;12.27;;;;;;;;;;5128306;27;20050;-73
2022/07/24 03:03:27;;;;;;;20.73;12.95;;;;;;;;;;5130527;27;20039;-72
2022/07/24 03:05:57;;;;;;;16.33;10.57;;;;;;;;;;5130681;27;20073;-72
2022/07/24 03:08:27;;;;;;;17.13;10.73;;;;;;;;;;5130188;27;20043;-72
2022/07/24 03:10:57;;;;;;;19.08;10.82;;;;;;;;;;5130266;27;20043;-72
2022/07/24 03:13:26;;;;;;;19.90;11.20;;;;;;;;;;5130495;27;20486;-73
2022/07/24 03:15:56;;;;;;;16.08;11.73;;;;;;;;;;5130354;27;20066;-73
2022/07/24 03:18:26;;;;;;;19.25;11.60;;;;;;;;;;5130099;27;20093;-75
2022/07/24 03:20:56;;;;;;;20.23;12.90;;;;;;;;;;5130237;27;20043;-73
2022/07/24 03:23:26;;;;;;;21.00;12.20;;;;;;;;;;5129866;27;20047;-73
2022/07/24 03:25:56;;;;;;;17.75;11.80;;;;;;;;;;5130039;27;20047;-73
2022/07/24 03:28:26;;;;;;;22.75;11.93;;;;;;;;;;5129755;27;20055;-73
2022/07/24 03:30:55;;;;;;;17.77;11.38;;;;;;;;;;5129362;27;20414;-72
2022/07/24 03:33:25;;;;;;;20.42;11.75;;;;;;;;;;5129723;27;20043;-73
2022/07/24 03:35:55;;;;;;;19.90;12.70;;;;;;;;;;5129302;27;20043;-72
2022/07/24 03:38:25;;;;;;;22.35;11.98;;;;;;;;;;5129726;27;20051;-73
2022/07/24 03:40:55;;;;;;;17.48;11.10;;;;;;;;;;5130523;27;20414;-73
2022/07/24 03:43:25;;;;;;;20.00;12.50;;;;;;;;;;5129129;27;20491;-72
2022/07/24 03:45:55;;;;;;;16.15;12.38;;;;;;;;;;5128344;27;20054;-73
2022/07/24 03:48:25;;;;;;;14.63;10.00;;;;;;;;;;5129246;27;20047;-72
2022/07/24 03:50:55;;;;;;;16.13;11.27;;;;;;;;;;5129333;27;20043;-73
2022/07/24 03:53:24;;;;;;;18.55;11.20;;;;;;;;;;5129193;27;20043;-72
2022/07/24 03:55:57;;;;;;;12.48;9.07;;;;;;;;;;5127687;27;20047;-73
2022/07/24 03:58:27;;;;;;;14.75;9.02;;;;;;;;;;5129620;27;20047;-73
2022/07/24 04:00:57;;;;;;;13.50;8.50;;;;;;;;;;5129720;27;20410;-73
2022/07/24 04:03:28;;;;;;;10.93;8.13;;;;;;;;;;5129311;27;20051;-72
2022/07/24 04:06:00;;;;;;;12.52;8.30;;;;;;;;;;5129303;27;20051;-72
2022/07/24 04:08:31;;;;;;;18.48;9.88;;;;;;;;;;5128101;27;20414;-72
2022/07/24 04:11:01;;;;;;;12.32;9.90;;;;;;;;;;5129083;27;20050;-75
2022/07/24 04:13:31;;;;;;;12.95;8.80;;;;;;;;;;5129328;27;20047;-72
2022/07/24 04:16:01;;;;;;;13.52;9.35;;;;;;;;;;5128866;27;20073;-73
2022/07/24 04:18:31;;;;;;;14.25;9.02;;;;;;;;;;5128782;27;20047;-72
2022/07/24 04:21:01;;;;;;;13.20;9.43;;;;;;;;;;5128634;27;20047;-73
2022/07/24 04:23:32;;;;;;;14.02;8.30;;;;;;;;;;5128267;27;20046;-72
2022/07/24 04:26:02;;;;;;;15.38;7.97;;;;;;;;;;5128628;27;20051;-73
2022/07/24 04:28:31;;;;;;;15.10;8.95;;;;;;;;;;5127156;27;20078;-73
2022/07/24 04:31:02;;;;;;;15.00;8.23;;;;;;;;;;5128951;27;20054;-73
2022/07/24 04:33:32;;;;;;;11.20;7.55;;;;;;;;;;5110268;27;20430;-73
2022/07/24 04:36:02;;;;;;;14.88;8.48;;;;;;;;;;5128636;27;20047;-73
2022/07/24 04:38:34;;;;;;;13.63;7.90;;;;;;;;;;5128408;27;20042;-73
2022/07/24 04:41:04;;;;;;;18.92;11.43;;;;;;;;;;5127947;27;20040;-73
2022/07/24 04:43:34;;;;;;;20.05;11.15;;;;;;;;;;5128308;27;20047;-73
2022/07/24 04:46:04;;;;;;;11.85;8.07;;;;;;;;;;5126613;27;20062;-73
2022/07/24 04:48:35;;;;;;;20.10;8.50;;;;;;;;;;5128628;27;20379;-73
2022/07/24 04:51:05;;;;;;;15.43;8.25;;;;;;;;;;5127659;27;20084;-75
2022/07/24 04:53:34;;;;;;;12.23;8.02;;;;;;;;;;5128187;27;20054;-72
2022/07/24 04:56:04;;;;;;;9.70;7.32;;;;;;;;;;5128499;27;20047;-72
2022/07/24 04:58:34;;;;;;;11.70;7.72;;;;;;;;;;5126986;27;20421;-72
2022/07/24 05:01:04;;;;;;;10.68;6.68;;;;;;;;;;5127269;27;20062;-72
2022/07/24 05:03:34;;;;;;;10.77;7.50;;;;;;;;;;5128416;27;20053;-73
2022/07/24 05:06:05;;;;;;;13.63;8.02;;;;;;;;;;5127419;27;20535;-73
2022/07/24 05:08:35;;;;;;;10.25;7.22;;;;;;;;;;5128628;27;20039;-72
2022/07/24 05:11:05;;;;;;;12.73;7.78;;;;;;;;;;5127994;27;20047;-73
2022/07/24 05:13:35;;;;;;;12.70;7.32;;;;;;;;;;5127992;27;20042;-72
2022/07/24 05:16:06;;;;;;;11.57;6.60;;;;;;;;;;5127407;27;20104;-72
2022/07/24 05:18:36;;;;;;;11.70;6.72;;;;;;;;;;5127927;27;20387;-72
2022/07/24 05:21:07;;;;;;;14.25;8.55;;;;;;;;;;5126482;27;20055;-72
2022/07/24 05:23:37;;;;;;;13.38;7.03;;;;;;;;;;5127658;27;20058;-73
2022/07/24 05:26:07;;;;;;;13.23;7.75;;;;;;;;;;5127501;27;20054;-73
2022/07/24 05:28:36;;;;;;;10.80;6.63;;;;;;;;;;5126359;27;20046;-72
2022/07/24 05:31:08;;;;;;;14.38;7.32;;;;;;;;;;5128235;27;20538;-72
2022/07/24 05:33:38;;;;;;;11.68;7.07;;;;;;;;;;5128147;27;20044;-72
2022/07/24 05:36:08;;;;;;;9.95;7.07;;;;;;;;;;5126513;27;20054;-72
2022/07/24 05:38:40;;;;;;;15.85;7.20;;;;;;;;;;5127507;27;20047;-72
2022/07/24 05:41:11;;;;;;;17.45;7.45;;;;;;;;;;5127544;28;20058;-72
2022/07/24 05:43:41;;;;;;;12.40;7.35;;;;;;;;;;5127259;28;20418;-72
2022/07/24 05:46:10;;;;;;;11.13;7.50;;;;;;;;;;5127200;28;20066;-72
2022/07/24 05:48:46;;;;;;;13.63;8.40;;;;;;;;;;5127432;28;20051;-73
2022/07/24 05:51:16;;;;;;;12.25;7.70;;;;;;;;;;5127565;28;20054;-73
2022/07/24 05:53:46;;;;;;;14.80;7.75;;;;;;;;;;5130615;27;20524;-73
2022/07/24 05:56:16;;;;;;;13.02;7.28;;;;;;;;;;5131829;27;20047;-73
2022/07/24 05:58:46;;;;;;;12.27;8.38;;;;;;;;;;5132734;27;20054;-72
2022/07/24 06:01:19;;;;;;;13.90;7.07;;;;;;;;;;5130149;27;21177;-72
2022/07/24 06:03:49;;;;;;;45.65;7.57;;;;;;;;;;5131253;27;20043;-73
2022/07/24 06:06:19;;;;;;;10.02;6.80;;;;;;;;;;5131762;27;20042;-72
2022/07/24 06:08:49;;;;;;;9.77;7.82;;;;;;;;;;5130193;27;20498;-73
2022/07/24 06:11:20;;;;;;;8.20;5.57;;;;;;;;;;5131605;27;20059;-72
2022/07/24 06:13:52;;;;;;;14.57;7.25;;;;;;;;;;5130827;27;20054;-72
2022/07/24 06:16:24;;;;;;;7.72;6.07;;;;;;;;;;5131499;27;20047;-72
2022/07/24 06:18:54;;;;;;;10.45;6.38;;;;;;;;;;5131276;27;20047;-72
2022/07/24 06:21:24;;;;;;;9.95;7.03;;;;;;;;;;5130798;27;20054;-73
2022/07/24 06:23:54;;;;;;;10.95;6.82;;;;;;;;;;5131510;27;20039;-72
2022/07/24 06:26:24;;;;;;;15.82;7.78;;;;;;;;;;5131642;27;20047;-73
2022/07/24 06:28:53;;;;;;;10.60;8.10;;;;;;;;;;5131434;27;20054;-73
2022/07/24 06:31:23;;;;;;;11.02;6.75;;;;;;;;;;5131142;27;20047;-73
2022/07/24 06:33:53;;;;;;;14.27;7.13;;;;;;;;;;5130691;27;20051;-73
2022/07/24 06:36:22;;;;;;;;;;;;;;;;;;5131418;27;20055;-73
2022/07/24 06:38:52;;;;;;;12.75;7.32;;;;;;;;;;5130796;27;19997;-72
2022/07/24 06:41:22;;;;;;;13.00;9.23;;;;;;;;;;5129551;27;20055;-72
2022/07/24 06:43:52;;;;;;;15.45;8.90;;;;;;;;;;5131015;27;20051;-72
2022/07/24 06:46:27;;;;;;;13.43;9.80;;;;;;;;;;5131068;27;20055;-72
2022/07/24 06:48:57;;;;;;;13.40;8.27;;;;;;;;;;5130763;27;20054;-73
2022/07/24 06:51:27;;;;;;;15.10;8.02;;;;;;;;;;5130726;27;20051;-73
2022/07/24 06:53:57;;;;;;;15.10;7.95;;;;;;;;;;5130695;27;20043;-73
2022/07/24 06:56:27;;;;;;;11.65;8.38;;;;;;;;;;5130646;27;20517;-73
2022/07/24 06:58:58;;;;;;;12.32;7.68;;;;;;;;;;5130774;27;20054;-73
2022/07/24 07:01:29;;;;;;;14.60;8.52;;;;;;;;;;5130119;27;20050;-72
2022/07/24 07:03:58;;;;;;;20.35;9.52;;;;;;;;;;5129467;27;20051;-73
2022/07/24 07:06:29;;;;;;;16.60;9.27;;;;;;;;;;5130226;27;20051;-73
2022/07/24 07:08:58;;;;;;;15.75;9.88;;;;;;;;;;5130268;27;20051;-72
2022/07/24 07:11:29;;;;;;;13.70;8.55;;;;;;;;;;5130376;27;20039;-73
2022/07/24 07:13:59;;;;;;;14.70;8.18;;;;;;;;;;5130076;27;20050;-73
2022/07/24 07:16:30;;;;;;;12.77;7.95;;;;;;;;;;5129962;27;20410;-73
2022/07/24 07:19:01;;;;;;;21.27;8.55;;;;;;;;;;5129612;27;20047;-72
2022/07/24 07:21:32;;;;;;;16.55;8.30;;;;;;;;;;5129967;27;20054;-73
2022/07/24 07:24:02;;;;;;;12.70;8.23;;;;;;;;;;5128881;27;20047;-73
2022/07/24 07:26:32;;;;;;;13.55;8.60;;;;;;;;;;5129891;27;20054;-72
2022/07/24 07:29:02;;;;;;;13.55;7.28;;;;;;;;;;5127775;27;20059;-72
2022/07/24 07:31:33;;;;;;;11.50;6.95;;;;;;;;;;5130222;27;20050;-72
2022/07/24 07:34:03;;;;;;;10.70;7.35;;;;;;;;;;5130024;27;20043;-72
2022/07/24 07:36:33;;;;;;;30.98;8.40;;;;;;;;;;5130059;27;20517;-72
2022/07/24 07:39:04;;;;;;;13.02;7.28;;;;;;;;;;5129600;27;20043;-72
2022/07/24 07:41:35;;;;;;;15.55;8.27;;;;;;;;;;5130217;27;20047;-72
2022/07/24 07:44:05;;;;;;;11.20;7.10;;;;;;;;;;5130183;27;20482;-72
2022/07/24 07:46:35;;;;;;;10.32;6.97;;;;;;;;;;5129733;27;20055;-72
2022/07/24 07:49:08;;;;;;;41.80;7.90;;;;;;;;;;5129779;27;20039;-72
2022/07/24 07:51:39;;;;;;;34.63;7.78;;;;;;;;;;5129472;27;20045;-73
2022/07/24 07:54:11;;;;;;;8.77;6.75;;;;;;;;;;5129389;27;20047;-72
2022/07/24 07:56:41;;;;;;;16.73;7.32;;;;;;;;;;5130153;27;20055;-72
2022/07/24 07:59:11;;;;;;;13.38;7.60;;;;;;;;;;5129615;27;20070;-72
2022/07/24 08:01:41;;;;;;;11.75;7.35;;;;;;;;;;5129253;27;20039;-72
2022/07/24 08:04:11;;;;;;;11.27;7.93;;;;;;;;;;5129003;27;20129;-72
2022/07/24 08:06:41;;;;;;;14.93;8.43;;;;;;;;;;5127708;27;20063;-72
2022/07/24 08:09:11;;;;;;;16.90;9.50;;;;;;;;;;5129556;27;20062;-72
2022/07/24 08:11:41;;;;;;;13.27;8.32;;;;;;;;;;5129617;27;20043;-72
2022/07/24 08:14:12;;;;;;;14.55;7.70;;;;;;;;;;5129095;27;20046;-72
2022/07/24 08:16:41;;;;;;;15.00;8.65;;;;;;;;;;5128524;27;20055;-72
2022/07/24 08:19:11;;;;;;;;;;;;;;;;;;5129925;27;20062;-72
2022/07/24 08:21:41;;;;;;;18.40;8.48;;;;;;;;;;5129373;27;20332;-72
2022/07/24 08:24:11;;;;;;;9.82;6.78;;;;;;;;;;5127644;27;20051;-72
2022/07/24 08:26:40;;;;;;;;;;;;;;;;;;5128222;27;20052;-72
2022/07/24 08:29:10;;;;;;;12.88;8.90;;;;;;;;;;5128784;27;19946;-73
2022/07/24 08:31:39;;;;;;;10.77;8.23;;;;;;;;;;5128848;27;20065;-72
2022/07/24 08:34:10;;;;;;;12.23;8.40;;;;;;;;;;5129257;27;20066;-73
2022/07/24 08:36:39;;;;;;;10.02;8.65;;;;;;;;;;5128126;27;20051;-72
2022/07/24 08:39:08;;;;;;;;;;;;;;;;;;5128901;27;20043;-72
2022/07/24 08:41:43;;;;;;;15.18;8.55;;;;;;;;;;5128156;27;20394;-72
2022/07/24 08:44:13;;;;;;;12.13;8.85;;;;;;;;;;5128720;27;20055;-73
2022/07/24 08:46:44;;;;;;;32.83;10.63;;;;;;;;;;5127858;27;20066;-72
2022/07/24 08:49:15;;;;;;;117.65;8.88;;;;;;;;;;5128376;27;20410;-73
2022/07/24 08:51:45;;;;;;;41.75;7.85;;;;;;;;;;5126132;27;20395;-72
2022/07/24 08:54:15;;;;;;;9.90;6.72;;;;;;;;;;5126643;27;20050;-72
2022/07/24 08:56:45;;;;;;;14.23;7.60;;;;;;;;;;5127106;27;20059;-73
2022/07/24 08:59:17;;;;;;;13.27;7.75;;;;;;;;;;5128050;27;20043;-72
2022/07/24 09:01:54;;;;;;;19.83;8.70;;;;;;;;;;5128263;27;20047;-73
2022/07/24 09:04:45;;;;;;;34.97;9.63;;;;;;;;;;5128036;27;20050;-72
2022/07/24 09:07:23;;;;;;;27.05;9.65;;;;;;;;;;5126694;27;20051;-72
2022/07/24 09:10:08;;;;;;;22.02;10.77;;;;;;;;;;5128600;27;20051;-73
2022/07/24 09:12:47;;;;;;;13.52;9.77;;;;;;;;;;5155017;27;20021;-73
2022/07/24 09:15:30;;;;;;;23.45;9.80;;;;;;;;;;5154141;27;20032;-73
2022/07/24 09:18:00;;;;;;;19.88;8.80;;;;;;;;;;5153999;27;20035;-73
2022/07/24 09:20:30;;;;;;;33.63;10.38;;;;;;;;;;5154817;27;20031;-72
2022/07/24 09:23:01;;;;;;;16.45;9.18;;;;;;;;;;5153146;27;20035;-72
2022/07/24 09:25:35;;;;;;;16.25;8.15;;;;;;;;;;5128131;27;20043;-73
2022/07/24 09:28:05;;;;;;;13.65;7.82;;;;;;;;;;5127068;27;20043;-71
2022/07/24 09:30:38;;;;;;;13.10;7.80;;;;;;;;;;5126433;27;20417;-72
2022/07/24 09:33:11;;;;;;;10.90;7.68;;;;;;;;;;5128830;27;20051;-71
2022/07/24 09:35:50;;;;;;;14.75;8.98;;;;;;;;;;5125860;27;20051;-71
2022/07/24 09:38:26;;;;;;;11.45;6.85;;;;;;;;;;5128388;27;20058;-71
2022/07/24 09:40:58;;;;;;;14.25;8.32;;;;;;;;;;5127560;27;20050;-72
2022/07/24 09:43:29;;;;;;;13.68;8.02;;;;;;;;;;5127962;28;20039;-72
2022/07/24 09:46:09;;;;;;;11.68;8.35;;;;;;;;;;5127178;28;20050;-73
2022/07/24 09:48:53;;;;;;;13.02;8.73;;;;;;;;;;5127741;28;20086;-72
2022/07/24 09:51:25;;;;;;;11.60;7.68;;;;;;;;;;5127367;28;20043;-71
2022/07/24 09:53:58;;;;;;;11.57;7.65;;;;;;;;;;5127243;28;20051;-71
2022/07/24 09:56:28;;;;;;;12.50;7.80;;;;;;;;;;5127548;28;20046;-71
2022/07/24 09:59:00;;;;;;;11.57;7.40;;;;;;;;;;5127418;28;20047;-71
2022/07/24 10:01:31;;;;;;;11.98;7.80;;;;;;;;;;5127886;28;20047;-71
2022/07/24 10:04:05;;;;;;;15.10;9.07;;;;;;;;;;5126996;28;20050;-72
2022/07/24 10:06:37;;;;;;;14.82;9.30;;;;;;;;;;5127672;28;20074;-72
2022/07/24 10:09:13;;;;;;;16.17;8.38;;;;;;;;;;5126262;28;20043;-72
2022/07/24 10:11:46;;;;;;;14.40;7.53;;;;;;;;;;5127578;28;20047;-72
2022/07/24 10:14:17;;;;;;;37.97;8.68;;;;;;;;;;5127581;28;20490;-72
2022/07/24 10:17:04;;;;;;;33.33;9.07;;;;;;;;;;5127768;28;20058;-71
2022/07/24 10:19:52;;;;;;;16.20;8.55;;;;;;;;;;5127117;28;20047;-71
2022/07/24 10:22:23;;;;;;;14.07;8.57;;;;;;;;;;5127219;28;20043;-72
2022/07/24 10:25:08;;;;;;;12.10;7.57;;;;;;;;;;5126905;28;21032;-71
2022/07/24 10:27:41;;;;;;;11.73;8.30;;;;;;;;;;5126872;28;20420;-74
2022/07/24 10:30:12;;;;;;;10.68;8.23;;;;;;;;;;5125723;28;20055;-72
2022/07/24 10:32:45;;;;;;;12.98;7.95;;;;;;;;;;5127492;28;20055;-73
2022/07/24 10:35:27;;;;;;;17.75;8.68;;;;;;;;;;5128057;28;20047;-73
2022/07/24 10:38:26;;;;;;;13.15;7.30;;;;;;;;;;5126446;28;20058;-72
2022/07/24 10:41:05;;;;;;;13.23;7.30;;;;;;;;;;5131267;27;20051;-72
2022/07/24 10:43:37;;;;;;;17.38;7.80;;;;;;;;;;5131372;27;20054;-72
2022/07/24 10:46:06;;;;;;;8.70;6.68;;;;;;;;;;5130643;27;20058;-73
2022/07/24 10:48:39;;;;;;;9.75;7.55;;;;;;;;;;5130620;27;20054;-73
2022/07/24 10:51:18;;;;;;;11.30;6.95;;;;;;;;;;5130625;27;20058;-73
2022/07/24 10:53:54;;;;;;;10.70;7.65;;;;;;;;;;5131138;27;20089;-73
2022/07/24 10:56:36;;;;;;;9.35;6.75;;;;;;;;;;5130721;27;20673;-72
2022/07/24 10:59:11;;;;;;;15.30;6.80;;;;;;;;;;5130578;27;20058;-72
2022/07/24 11:01:47;;;;;;;9.32;6.63;;;;;;;;;;5131021;27;20043;-72
2022/07/24 11:04:20;;;;;;;;;;;;;;;;;;5131743;27;20039;-72
2022/07/24 11:06:56;;;;;;;8.82;5.80;;;;;;;;;;5130566;27;19931;-72
2022/07/24 11:09:29;;;;;;;8.20;5.55;;;;;;;;;;5130391;27;20583;-72
2022/07/24 11:11:59;;;;;;;7.25;5.65;;;;;;;;;;5128845;27;20066;-71
2022/07/24 11:14:37;;;;;;;7.72;5.47;;;;;;;;;;5130654;27;20047;-73
2022/07/24 11:17:41;;;;;;;8.02;5.80;;;;;;;;;;5130431;27;20043;-71
2022/07/24 11:20:20;;;;;;;6.22;5.30;;;;;;;;;;5130353;27;20039;-72
2022/07/24 11:22:57;;;;;;;7.15;5.53;;;;;;;;;;5130069;27;20047;-71
2022/07/24 11:25:30;;;;;;;6.82;5.70;;;;;;;;;;5130516;27;20058;-72
2022/07/24 11:28:21;;;;;;;6.20;5.22;;;;;;;;;;5129881;27;20039;-72
2022/07/24 11:30:51;;;;;;;7.63;4.70;;;;;;;;;;5130134;27;20078;-72
2022/07/24 11:33:22;;;;;;;6.18;4.68;;;;;;;;;;5130621;27;20055;-75
2022/07/24 11:35:51;;;;;;;6.95;4.78;;;;;;;;;;5129414;27;20043;-72
2022/07/24 11:38:29;;;;;;;7.82;4.18;;;;;;;;;;5129080;27;20043;-72
2022/07/24 11:41:06;;;;;;;13.55;5.65;;;;;;;;;;5130259;27;20386;-73
2022/07/24 11:43:49;;;;;;;7.38;5.38;;;;;;;;;;5129192;27;20043;-72
2022/07/24 11:46:40;;;;;;;6.60;4.70;;;;;;;;;;5128339;27;20069;-72
2022/07/24 11:49:10;;;;;;;6.65;4.55;;;;;;;;;;5129569;27;20043;-74
2022/07/24 11:51:46;;;;;;;6.32;4.43;;;;;;;;;;5128127;27;20055;-72
2022/07/24 11:54:22;;;;;;;8.40;5.28;;;;;;;;;;5128870;27;20043;-72
2022/07/24 11:56:55;;;;;;;6.88;5.70;;;;;;;;;;5129340;27;20046;-72
2022/07/24 11:59:32;;;;;;;10.77;5.90;;;;;;;;;;5127781;27;20051;-73
2022/07/24 12:02:08;;;;;;;6.82;5.38;;;;;;;;;;5129142;27;20054;-73
2022/07/24 12:04:43;;;;;;;9.80;5.63;;;;;;;;;;5129342;27;20057;-73
2022/07/24 12:07:19;;;;;;;14.45;6.30;;;;;;;;;;5130508;27;20051;-72
2022/07/24 12:09:56;;;;;;;11.77;6.03;;;;;;;;;;5128778;27;20058;-72
2022/07/24 12:12:28;;;;;;;8.95;6.40;;;;;;;;;;5127746;27;20043;-72
2022/07/24 12:15:11;;;;;;;11.10;6.68;;;;;;;;;;5133981;27;20050;-72
2022/07/24 12:18:02;;;;;;;;;;;;;;;;;;5129849;27;20043;-71
2022/07/24 12:20:35;;;;;;;10.18;6.75;;;;;;;;;;5128633;27;19926;-72
2022/07/24 12:23:11;;;;;;;9.10;6.07;;;;;;;;;;5127969;27;20702;-72
2022/07/24 12:25:43;;;;;;;8.07;6.90;;;;;;;;;;5128290;27;20043;-72
2022/07/24 12:28:18;;;;;;;9.82;6.25;;;;;;;;;;5128531;27;20516;-75
2022/07/24 12:30:50;;;;;;;14.90;6.80;;;;;;;;;;5127151;27;20042;-73
2022/07/24 12:33:26;;;;;;;12.20;7.32;;;;;;;;;;5126648;27;20051;-72
2022/07/24 12:35:56;;;;;;;;;;;;;;;;;;5128420;27;20521;-76
2022/07/24 12:38:35;;;;;;;8.70;6.45;;;;;;;;;;5125475;27;20686;-75
2022/07/24 12:41:11;;;;;;;12.23;7.15;;;;;;;;;;5128189;27;20043;-76
2022/07/24 12:43:50;;;;;;;11.45;8.13;;;;;;;;;;5127051;27;20079;-77
2022/07/24 12:46:23;;;;;;;13.23;6.70;;;;;;;;;;5128684;27;20050;-76
2022/07/24 12:49:03;;;;;;;10.60;7.22;;;;;;;;;;5128092;27;20051;-77
2022/07/24 12:51:46;;;;;;;15.48;7.55;;;;;;;;;;5127293;27;20112;-78
2022/07/24 12:54:20;;;;;;;15.00;7.00;;;;;;;;;;5128139;27;20073;-77
2022/07/24 12:56:53;;;;;;;23.48;7.65;;;;;;;;;;5125939;27;20533;-78
2022/07/24 12:59:36;;;;;;;12.48;7.15;;;;;;;;;;5127242;27;20065;-77
2022/07/24 13:02:15;;;;;;;20.08;7.93;;;;;;;;;;5126629;27;20051;-79
2022/07/24 13:04:50;;;;;;;10.63;6.28;;;;;;;;;;5127604;27;20384;-77
2022/07/24 13:07:23;;;;;;;10.80;6.68;;;;;;;;;;5127493;27;20045;-76
2022/07/24 13:09:53;;;;;;;14.98;7.40;;;;;;;;;;5127763;27;20047;-78
2022/07/24 13:12:23;;;;;;;10.20;6.65;;;;;;;;;;5128313;27;20683;-77
2022/07/24 13:14:53;;;;;;;9.77;6.70;;;;;;;;;;5129517;27;20493;-77
2022/07/24 13:17:23;;;;;;;8.32;6.53;;;;;;;;;;5128317;27;20042;-77
2022/07/24 13:19:53;;;;;;;12.95;6.78;;;;;;;;;;5129545;27;20055;-77
2022/07/24 13:22:24;;;;;;;13.15;7.35;;;;;;;;;;5129484;27;20462;-78
2022/07/24 13:24:54;;;;;;;13.32;7.63;;;;;;;;;;5128056;27;20054;-78
2022/07/24 13:27:24;;;;;;;15.20;7.40;;;;;;;;;;5129355;27;20146;-80
2022/07/24 13:29:55;;;;;;;15.40;9.10;;;;;;;;;;5128038;27;20558;-76
2022/07/24 13:32:30;;;;;;;13.52;8.82;;;;;;;;;;5133070;27;20045;-77
2022/07/24 13:35:06;;;;;;;13.40;8.93;;;;;;;;;;5131485;27;20150;-77
2022/07/24 13:37:38;;;;;;;15.38;9.55;;;;;;;;;;5129661;27;20043;-76
2022/07/24 13:40:13;;;;;;;14.43;9.82;;;;;;;;;;5129730;27;20050;-78
2022/07/24 13:42:45;;;;;;;16.25;10.40;;;;;;;;;;5128156;27;20043;-77
2022/07/24 13:45:17;;;;;;;14.82;9.88;;;;;;;;;;5128162;28;20071;-78
2022/07/24 13:47:51;;;;;;;13.93;9.90;;;;;;;;;;5128249;28;20057;-76
2022/07/24 13:50:23;;;;;;;16.08;9.38;;;;;;;;;;5129799;28;20422;-77
2022/07/24 13:53:31;;;;;;;17.67;10.15;;;;;;;;;;5130170;28;20061;-77
2022/07/24 13:56:13;;;;;;;18.58;9.70;;;;;;;;;;5129038;28;20062;-77
2022/07/24 13:58:50;;;;;;;18.48;9.85;;;;;;;;;;5125463;28;20066;-79
2022/07/24 14:01:35;;;;;;;19.00;10.50;;;;;;;;;;5128173;28;20603;-79
2022/07/24 14:04:19;;;;;;;15.40;9.32;;;;;;;;;;5127323;28;20055;-78
2022/07/24 14:06:56;;;;;;;12.50;9.60;;;;;;;;;;5127515;28;20055;-76
2022/07/24 14:09:29;;;;;;;14.38;8.70;;;;;;;;;;5127919;28;20050;-80
2022/07/24 14:12:04;;;;;;;14.82;10.60;;;;;;;;;;5127769;28;20118;-80
2022/07/24 14:14:43;;;;;;;15.38;9.35;;;;;;;;;;5130099;27;20644;-78
2022/07/24 14:17:25;;;;;;;11.20;8.40;;;;;;;;;;5130809;27;20162;-79
2022/07/24 14:20:11;;;;;;;12.00;7.03;;;;;;;;;;5130900;27;20415;-77
2022/07/24 14:22:47;;;;;;;12.20;7.85;;;;;;;;;;5130491;27;20101;-78
2022/07/24 14:25:21;;;;;;;11.75;6.82;;;;;;;;;;5129152;27;20749;-78
2022/07/24 14:27:58;;;;;;;9.95;7.43;;;;;;;;;;5130498;27;20058;-78
2022/07/24 14:30:30;;;;;;;9.73;7.25;;;;;;;;;;5130781;27;20047;-77
2022/07/24 14:33:00;;;;;;;11.10;5.70;;;;;;;;;;5130901;27;20053;-76
2022/07/24 14:35:30;;;;;;;12.05;5.40;;;;;;;;;;5131030;27;20043;-76
2022/07/24 14:38:00;;;;;;;9.20;6.25;;;;;;;;;;5128890;27;20407;-76
2022/07/24 14:40:30;;;;;;;12.30;7.60;;;;;;;;;;5129165;27;20047;-77
2022/07/24 14:43:00;;;;;;;9.15;5.85;;;;;;;;;;5131266;27;20494;-75
2022/07/24 14:45:31;;;;;;;6.47;5.35;;;;;;;;;;5129883;27;20051;-76
2022/07/24 14:48:01;;;;;;;11.50;5.68;;;;;;;;;;5130451;27;20047;-78
2022/07/24 14:50:31;;;;;;;7.18;5.15;;;;;;;;;;5129706;27;20047;-76
2022/07/24 14:53:01;;;;;;;8.82;5.53;;;;;;;;;;5128987;27;20128;-77
2022/07/24 14:55:31;;;;;;;8.68;4.80;;;;;;;;;;5129604;27;21155;-77
2022/07/24 14:58:03;;;;;;;12.32;5.93;;;;;;;;;;5128362;27;20047;-76
2022/07/24 15:00:33;;;;;;;9.98;5.63;;;;;;;;;;5129813;27;20039;-79
2022/07/24 15:03:03;;;;;;;8.63;5.85;;;;;;;;;;5129988;27;20058;-76